createdAt,value
2023-03-22T00:03:29.650Z,23.91
2023-03-22T00:07:29.628Z,23.90
2023-03-22T00:11:29.569Z,23.91
2023-03-22T00:15:29.565Z,23.91
2023-03-22T00:19:29.471Z,23.90
2023-03-22T00:23:29.899Z,23.90
2023-03-22T00:27:29.394Z,23.90
2023-03-22T00:31:29.454Z,23.90
2023-03-22T00:35:29.386Z,23.90
2023-03-22T00:39:29.380Z,23.90
2023-03-22T00:43:29.250Z,23.91
2023-03-22T00:47:29.274Z,23.91
2023-03-22T00:51:29.228Z,23.91
2023-03-22T00:55:29.169Z,23.90
2023-03-22T00:59:29.197Z,23.90
2023-03-22T01:03:29.199Z,23.90
2023-03-22T01:07:29.145Z,23.91
2023-03-22T01:11:29.047Z,23.90
2023-03-22T01:15:29.084Z,23.91
2023-03-22T01:19:29.009Z,23.90
2023-03-22T01:23:29.023Z,23.90
2023-03-22T01:27:29.507Z,23.89
2023-03-22T01:31:29.425Z,23.90
2023-03-22T01:35:28.877Z,23.90
2023-03-22T01:39:29.442Z,23.89
2023-03-22T01:43:29.005Z,23.91
2023-03-22T01:47:29.480Z,23.89
2023-03-22T01:51:28.669Z,23.90
2023-03-22T01:55:28.655Z,23.89
2023-03-22T01:59:28.575Z,23.88
2023-03-22T02:03:28.552Z,23.89
2023-03-22T02:07:28.632Z,23.88
2023-03-22T02:11:28.649Z,23.88
2023-03-22T02:15:29.005Z,23.89
2023-03-22T02:19:28.633Z,23.89
2023-03-22T02:23:28.757Z,23.88
2023-03-22T02:27:28.687Z,23.88
2023-03-22T02:31:28.816Z,23.89
2023-03-22T02:35:28.744Z,23.88
2023-03-22T02:39:28.660Z,23.88
2023-03-22T02:43:28.627Z,23.87
2023-03-22T02:47:28.594Z,23.88
2023-03-22T02:51:28.525Z,23.87
2023-03-22T02:55:28.481Z,23.87
2023-03-22T02:59:28.453Z,23.88
2023-03-22T03:03:28.481Z,23.88
2023-03-22T03:07:28.407Z,23.87
2023-03-22T03:11:28.474Z,23.88
2023-03-22T03:15:28.411Z,23.88
2023-03-22T03:19:28.318Z,23.87
2023-03-22T03:23:28.506Z,23.87
2023-03-22T03:27:28.465Z,23.86
2023-03-22T03:31:29.055Z,23.86
2023-03-22T03:35:28.194Z,23.85
2023-03-22T03:39:28.084Z,23.85
2023-03-22T03:43:28.149Z,23.86
2023-03-22T03:47:28.132Z,23.85
2023-03-22T03:51:28.011Z,23.86
2023-03-22T03:55:28.486Z,23.86
2023-03-22T03:59:28.050Z,23.87
2023-03-22T04:03:28.602Z,23.87
2023-03-22T04:07:28.198Z,23.88
2023-03-22T04:11:28.174Z,23.87
2023-03-22T04:15:28.189Z,23.87
2023-03-22T04:19:28.165Z,23.86
2023-03-22T04:23:28.498Z,23.85
2023-03-22T04:27:28.121Z,23.85
2023-03-22T04:31:28.096Z,23.85
2023-03-22T04:35:27.978Z,23.85
2023-03-22T04:39:28.001Z,23.85
2023-03-22T04:43:28.013Z,23.85
2023-03-22T04:47:28.036Z,23.85
2023-03-22T04:51:27.829Z,23.85
2023-03-22T04:55:27.775Z,23.84
2023-03-22T04:59:27.853Z,23.84
2023-03-22T05:03:27.748Z,23.84
2023-03-22T05:07:27.662Z,23.83
2023-03-22T05:11:27.806Z,23.83
2023-03-22T05:15:27.893Z,23.83
2023-03-22T05:19:27.953Z,23.84
2023-03-22T05:23:27.913Z,23.84
2023-03-22T05:27:27.906Z,23.84
2023-03-22T05:31:27.827Z,23.85
2023-03-22T05:35:27.796Z,23.85
2023-03-22T05:39:27.750Z,23.86
2023-03-22T05:43:27.722Z,23.88
2023-03-22T05:47:27.699Z,23.90
2023-03-22T05:51:27.632Z,23.91
2023-03-22T05:55:27.711Z,23.92
2023-03-22T05:59:27.617Z,23.95
2023-03-22T06:03:27.615Z,23.96
2023-03-22T06:07:27.505Z,23.97
2023-03-22T06:11:27.432Z,23.99
2023-03-22T06:15:27.718Z,23.99
2023-03-22T06:19:27.516Z,24.02
2023-03-22T06:23:27.489Z,24.03
2023-03-22T06:27:27.434Z,24.04
2023-03-22T06:31:27.421Z,24.07
2023-03-22T06:35:28.875Z,24.11
2023-03-22T06:39:27.309Z,24.21
2023-03-22T06:43:31.044Z,24.37
2023-03-22T06:47:27.276Z,24.43
2023-03-22T06:51:27.142Z,24.43
2023-03-22T06:55:27.350Z,24.41
2023-03-22T06:59:27.336Z,24.41
2023-03-22T07:03:27.282Z,24.40
2023-03-22T07:07:27.330Z,24.41
2023-03-22T07:11:27.267Z,24.41
2023-03-22T07:15:27.694Z,24.43
2023-03-22T07:19:27.628Z,24.44
2023-03-22T07:23:29.274Z,24.46
2023-03-22T07:27:27.226Z,24.48
2023-03-22T07:31:27.340Z,24.50
2023-03-22T07:35:27.704Z,24.48
2023-03-22T07:39:27.783Z,24.55
2023-03-22T07:43:29.248Z,24.71
2023-03-22T07:47:40.343Z,24.74
2023-03-22T07:51:29.182Z,24.73
2023-03-22T07:55:27.944Z,24.72
2023-03-22T07:59:28.310Z,24.76
2023-03-22T08:03:28.780Z,24.85
2023-03-22T08:07:28.246Z,24.94
2023-03-22T08:11:28.507Z,25.06
2023-03-22T08:15:28.436Z,25.14
2023-03-22T08:19:28.299Z,25.24
2023-03-22T08:23:40.530Z,25.31
2023-03-22T08:27:29.469Z,25.39
2023-03-22T08:31:28.383Z,25.44
2023-03-22T08:35:30.987Z,25.50
2023-03-22T08:39:28.378Z,25.58
2023-03-22T08:43:28.327Z,25.64
2023-03-22T08:47:28.624Z,25.69
2023-03-22T08:51:28.153Z,25.75
2023-03-22T08:55:28.044Z,25.80
2023-03-22T08:59:34.639Z,25.83
2023-03-22T09:03:27.987Z,25.90
2023-03-22T09:07:28.001Z,25.94
2023-03-22T09:11:27.968Z,26.00
2023-03-22T09:15:27.826Z,26.06
2023-03-22T09:19:27.825Z,26.11
2023-03-22T09:23:27.745Z,26.17
2023-03-22T09:27:28.215Z,26.15
2023-03-22T09:47:01.183Z,25.49
2023-03-22T09:50:50.478Z,25.57
2023-03-22T09:54:52.203Z,25.63
2023-03-22T09:58:49.563Z,25.70
2023-03-22T10:02:49.561Z,25.79
2023-03-22T10:06:49.492Z,25.84
2023-03-22T10:10:49.505Z,25.89
2023-03-22T10:14:49.542Z,25.95
2023-03-22T10:18:49.501Z,26.00
2023-03-22T10:22:50.611Z,25.96
2023-03-22T10:26:49.331Z,25.94
2023-03-22T10:30:49.462Z,25.92
2023-03-22T10:34:49.353Z,25.95
2023-03-22T10:38:49.159Z,25.97
2023-03-22T10:42:49.324Z,26.00
2023-03-22T10:46:49.780Z,26.04
2023-03-22T10:50:49.030Z,26.01
2023-03-22T10:54:49.042Z,25.99
2023-03-22T10:58:49.016Z,26.15
2023-03-22T11:02:49.065Z,26.28
2023-03-22T11:06:49.034Z,26.39
2023-03-22T11:10:49.071Z,26.48
2023-03-22T11:14:49.024Z,26.55
2023-03-22T11:18:49.818Z,26.60
2023-03-22T11:22:48.769Z,26.67
2023-03-22T11:26:48.863Z,26.74
2023-03-22T11:30:48.925Z,26.79
2023-03-22T11:34:50.445Z,26.73
2023-03-22T11:38:49.056Z,26.65
2023-03-22T11:42:48.883Z,26.64
2023-03-22T11:46:49.004Z,26.69
2023-03-22T11:50:48.831Z,26.76
2023-03-22T11:54:49.593Z,26.82
2023-03-22T11:58:50.117Z,26.86
2023-03-22T12:03:00.319Z,26.89
2023-03-22T12:06:49.610Z,26.92
2023-03-22T12:10:49.345Z,26.96
2023-03-22T12:14:49.419Z,26.98
2023-03-22T12:18:58.227Z,27.11
2023-03-22T12:22:50.217Z,27.13
2023-03-22T12:26:49.358Z,27.10
2023-03-22T12:30:49.266Z,27.07
2023-03-22T12:34:50.928Z,27.06
2023-03-22T12:38:49.263Z,27.07
2023-03-22T12:42:52.403Z,27.06
2023-03-22T12:46:50.125Z,27.08
2023-03-22T12:50:48.917Z,27.09
2023-03-22T12:54:48.986Z,27.11
2023-03-22T12:58:48.930Z,27.11
2023-03-22T13:02:48.976Z,27.12
2023-03-22T13:06:49.198Z,27.13
2023-03-22T13:10:48.939Z,27.13
2023-03-22T13:14:48.815Z,27.15
2023-03-22T13:18:50.414Z,27.15
2023-03-22T13:22:48.680Z,27.16
2023-03-22T13:26:48.711Z,27.16
2023-03-22T13:30:48.934Z,27.17
2023-03-22T13:34:49.108Z,27.16
2023-03-22T13:38:49.046Z,27.16
2023-03-22T13:42:49.532Z,27.15
2023-03-22T13:46:48.876Z,27.15
2023-03-22T13:50:48.903Z,27.13
2023-03-22T13:54:48.764Z,27.12
2023-03-22T13:58:48.800Z,27.11
2023-03-22T14:02:48.838Z,27.07
2023-03-22T14:06:48.781Z,26.86
2023-03-22T14:10:48.651Z,26.74
2023-03-22T14:14:48.747Z,26.68
2023-03-22T14:18:48.752Z,26.68
2023-03-22T14:47:49.816Z,26.67
2023-03-22T14:56:02.440Z,26.62
2023-03-22T14:59:59.734Z,26.60
2023-03-22T15:03:59.932Z,26.56
2023-03-22T15:07:59.850Z,26.52
2023-03-22T15:11:59.824Z,26.50
2023-03-22T15:16:00.075Z,26.47
2023-03-22T15:19:59.912Z,26.42
2023-03-22T15:24:00.068Z,26.38
2023-03-22T15:28:00.099Z,26.35
2023-03-22T15:32:00.172Z,26.31
2023-03-22T15:36:00.328Z,26.28
2023-03-22T15:40:00.300Z,26.25
2023-03-22T15:44:00.344Z,26.24
2023-03-22T15:48:01.332Z,26.20
2023-03-22T15:52:00.523Z,26.16
2023-03-22T15:56:00.560Z,26.12
2023-03-22T16:00:01.040Z,26.09
2023-03-22T16:04:01.009Z,26.07
2023-03-22T16:08:00.776Z,26.03
2023-03-22T16:12:00.928Z,26.00
2023-03-22T16:16:01.012Z,25.97
2023-03-22T16:20:01.308Z,25.95
2023-03-22T16:24:01.291Z,25.92
2023-03-22T16:28:01.401Z,25.89
2023-03-22T16:32:01.573Z,25.85
2023-03-22T16:36:01.690Z,25.83
2023-03-22T16:40:01.893Z,25.81
2023-03-22T16:44:02.064Z,25.78
2023-03-22T16:48:02.281Z,25.75
2023-03-22T16:52:02.457Z,25.72
2023-03-22T16:56:02.662Z,25.70
2023-03-22T17:00:02.808Z,25.68
2023-03-22T17:04:03.508Z,25.65
2023-03-22T17:08:03.247Z,25.63
2023-03-22T17:12:03.450Z,25.60
2023-03-22T17:16:03.711Z,25.58
2023-03-22T17:20:03.681Z,25.56
2023-03-22T17:24:03.572Z,25.54
2023-03-22T17:28:03.661Z,25.51
2023-03-22T17:32:09.746Z,25.50
2023-03-22T17:36:04.534Z,25.48
2023-03-22T17:44:03.517Z,25.45
2023-03-22T17:48:03.629Z,25.43
2023-03-22T17:52:03.427Z,25.41
2023-03-22T18:00:04.343Z,25.40
2023-03-22T18:04:03.379Z,25.37
2023-03-22T18:08:24.584Z,25.37
2023-03-22T18:12:04.467Z,25.35
2023-03-22T18:16:03.463Z,25.33
2023-03-22T18:20:17.044Z,25.31
2023-03-22T18:24:04.382Z,25.30
2023-03-22T18:28:03.332Z,25.29
2023-03-22T18:32:12.163Z,25.28
2023-03-22T18:36:04.354Z,25.28
2023-03-22T18:40:26.697Z,25.27
2023-03-22T18:44:04.231Z,25.26
2023-03-22T18:48:03.242Z,25.26
2023-03-22T18:56:06.895Z,25.23
2023-03-22T19:00:04.055Z,25.22
2023-03-22T19:04:03.062Z,25.19
2023-03-22T19:08:19.718Z,25.18
2023-03-22T19:12:03.941Z,25.17
2023-03-22T19:16:02.944Z,25.16
2023-03-22T19:20:02.863Z,25.15
2023-03-22T19:24:02.895Z,25.14
2023-03-22T19:28:03.415Z,25.12
2023-03-22T19:32:02.775Z,25.12
2023-03-22T19:36:02.880Z,25.11
2023-03-22T19:44:05.936Z,25.07
2023-03-22T19:48:04.520Z,25.06
2023-03-22T19:52:03.206Z,25.05
2023-03-22T19:56:02.618Z,25.03
2023-03-22T20:00:43.691Z,25.00
2023-03-22T20:04:03.492Z,24.99
2023-03-22T20:08:02.437Z,24.98
2023-03-22T20:12:03.074Z,24.97
2023-03-22T20:16:02.380Z,24.97
2023-03-22T20:23:24.108Z,24.92
2023-03-22T20:27:24.125Z,24.92
2023-03-22T20:31:24.056Z,24.91
2023-03-22T20:35:24.026Z,24.91
2023-03-22T20:39:23.939Z,24.92
2023-03-22T20:43:23.963Z,24.91
2023-03-22T20:47:23.900Z,24.90
2023-03-22T20:51:23.851Z,24.91
2023-03-22T20:55:23.825Z,24.89
2023-03-22T20:59:24.817Z,24.89
2023-03-22T21:03:23.929Z,24.89
2023-03-22T21:07:24.002Z,24.87
2023-03-22T21:11:24.120Z,24.86
2023-03-22T21:15:24.237Z,24.85
2023-03-22T21:19:26.836Z,24.85
2023-03-22T21:23:24.307Z,24.84
2023-03-22T21:27:24.271Z,24.83
2023-03-22T21:31:24.261Z,24.82
2023-03-22T21:35:24.223Z,24.81
2023-03-22T21:39:24.202Z,24.81
2023-03-22T21:43:24.167Z,24.80
2023-03-22T21:47:24.146Z,24.79
2023-03-22T21:51:24.091Z,24.77
2023-03-22T21:55:24.888Z,24.76
2023-03-22T21:59:24.059Z,24.76
2023-03-22T22:03:24.482Z,24.76
2023-03-22T22:07:27.425Z,24.74
2023-03-22T22:11:24.394Z,24.74
2023-03-22T22:15:24.969Z,24.73
2023-03-22T22:19:23.844Z,24.72
2023-03-22T22:23:23.776Z,24.71
2023-03-22T22:27:23.790Z,24.72
2023-03-22T22:31:24.421Z,24.70
2023-03-22T22:35:24.420Z,24.70
2023-03-22T22:39:23.746Z,24.67
2023-03-22T22:43:23.757Z,24.66
2023-03-22T22:47:23.988Z,24.65
2023-03-22T22:51:24.175Z,24.64
2023-03-22T22:55:24.326Z,24.63
2023-03-22T22:59:24.487Z,24.64
2023-03-22T23:03:24.654Z,24.65
2023-03-22T23:07:24.784Z,24.65
2023-03-22T23:11:24.965Z,24.62
2023-03-22T23:15:27.230Z,24.62
2023-03-22T23:19:25.316Z,24.62
2023-03-22T23:23:25.585Z,24.62
2023-03-22T23:27:25.666Z,24.61
2023-03-22T23:31:25.855Z,24.61
2023-03-22T23:35:26.044Z,24.62
2023-03-22T23:39:26.155Z,24.64
2023-03-22T23:43:26.320Z,24.66
2023-03-22T23:47:26.477Z,24.67
2023-03-22T23:51:26.578Z,24.69
2023-03-22T23:55:26.704Z,24.70
2023-03-22T23:59:26.817Z,24.70
